| time (UTC) | temp F | wind direction | speed MPH | gust MPH | rain 1hr in | rain 24hr in | rain mn in | humidity % | barometer mb |
| 20260507144158 | 49 | 28 | 4.0 | 11.0 | 0.00 | 0.00 | 0.00 | 40 | 1012.0 |
| 20260507143152 | 49 | 344 | 4.0 | 12.0 | 0.00 | 0.00 | 0.00 | 38 | 1012.1 |
| 20260507142152 | 49 | 283 | 4.0 | 12.0 | 0.00 | 0.00 | 0.00 | 37 | 1012.2 |
| 20260507141144 | 48 | 319 | 4.0 | 11.0 | 0.00 | 0.00 | 0.00 | 38 | 1012.1 |
| 20260507140111 | 47 | 325 | 4.0 | 11.0 | 0.00 | 0.00 | 0.00 | 40 | 1012.0 |
| 20260507135127 | 47 | 5 | 2.0 | 8.0 | 0.00 | 0.00 | 0.00 | 41 | 1012.1 |
| 20260507134121 | 46 | 0 | 3.0 | 11.0 | 0.00 | 0.00 | 0.00 | 41 | 1012.1 |
| 20260507133113 | 46 | 316 | 2.0 | 10.0 | 0.00 | 0.00 | 0.00 | 40 | 1012.0 |
| 20260507132047 | 45 | 301 | 0.0 | 0.0 | 0.00 | 0.00 | 0.00 | 43 | 1012.0 |
| 20260507125840 | 40 | 246 | 0.0 | 2.0 | 0.00 | 0.00 | 0.00 | 54 | 1011.6 |
| 20260507124824 | 37 | 355 | 0.0 | 3.0 | 0.00 | 0.00 | 0.00 | 57 | 1011.6 |
| 20260507123823 | 35 | 31 | 0.0 | 0.0 | 0.00 | 0.00 | 0.00 | 59 | 1011.5 |
| 20260507122837 | 34 | 355 | 0.0 | 0.0 | 0.00 | 0.00 | 0.00 | 59 | 1011.3 |
| 20260507121825 | 34 | 289 | 0.0 | 3.0 | 0.00 | 0.00 | 0.00 | 58 | 1011.3 |
| 20260507120755 | 33 | 341 | 0.0 | 0.0 | 0.00 | 0.00 | 0.00 | 58 | 1011.2 |
| 20260507115746 | 34 | 341 | 0.0 | 0.0 | 0.00 | 0.00 | 0.00 | 57 | 1011.3 |
| 20260507114737 | 34 | 0 | 0.0 | 0.0 | 0.00 | 0.00 | 0.00 | 56 | 1011.3 |
| 20260507113725 | 34 | 0 | 0.0 | 0.0 | 0.00 | 0.00 | 0.00 | 55 | 1011.0 |
| 20260507112728 | 34 | 306 | 0.0 | 0.0 | 0.00 | 0.00 | 0.00 | 54 | 1011.1 |
| 20260507111735 | 34 | 306 | 0.0 | 0.0 | 0.00 | 0.00 | 0.00 | 55 | 1011.0 |
| 20260507110732 | 34 | 5 | 0.0 | 0.0 | 0.00 | 0.00 | 0.00 | 54 | 1011.0 |
| 20260507105707 | 34 | 5 | 0.0 | 0.0 | 0.00 | 0.00 | 0.00 | 54 | 1011.0 |
| 20260507104634 | 34 | 5 | 0.0 | 0.0 | 0.00 | 0.00 | 0.00 | 54 | 1010.9 |
| 20260507103605 | 34 | 5 | 0.0 | 0.0 | 0.00 | 0.00 | 0.00 | 53 | 1010.7 |
| 20260507102616 | 35 | 5 | 0.0 | 0.0 | 0.00 | 0.00 | 0.00 | 52 | 1010.7 |
| 20260507101631 | 35 | 5 | 0.0 | 0.0 | 0.00 | 0.00 | 0.00 | 51 | 1010.8 |
| 20260507100632 | 36 | 18 | 0.0 | 0.0 | 0.00 | 0.00 | 0.00 | 49 | 1010.6 |
| 20260507093307 | 36 | 34 | 0.0 | 4.0 | 0.00 | 0.00 | 0.00 | 49 | 1010.7 |
| 20260507092235 | 36 | 340 | 0.0 | 1.0 | 0.00 | 0.00 | 0.00 | 49 | 1010.7 |
| 20260507091201 | 36 | 346 | 0.0 | 1.0 | 0.00 | 0.00 | 0.00 | 49 | 1010.8 |
| 20260507084953 | 36 | 344 | 0.0 | 3.0 | 0.00 | 0.00 | 0.00 | 50 | 1010.5 |
| 20260507082810 | 36 | 34 | 0.0 | 0.0 | 0.00 | 0.00 | 0.00 | 49 | 1010.6 |
| 20260507081818 | 37 | 340 | 0.0 | 0.0 | 0.00 | 0.00 | 0.00 | 46 | 1010.5 |
| 20260507075659 | 36 | 350 | 0.0 | 0.0 | 0.00 | 0.00 | 0.00 | 49 | 1010.5 |
| 20260507074712 | 37 | 340 | 0.0 | 0.0 | 0.00 | 0.00 | 0.00 | 46 | 1010.6 |
| 20260507073703 | 37 | 10 | 0.0 | 2.0 | 0.00 | 0.00 | 0.00 | 46 | 1010.7 |
| 20260507072650 | 35 | 296 | 0.0 | 0.0 | 0.00 | 0.00 | 0.00 | 48 | 1010.7 |
| 20260507071627 | 36 | 343 | 0.0 | 3.0 | 0.00 | 0.00 | 0.00 | 46 | 1010.8 |
| 20260507070636 | 36 | 336 | 1.0 | 6.0 | 0.00 | 0.00 | 0.00 | 48 | 1010.8 |
| 20260507064504 | 35 | 326 | 0.0 | 5.0 | 0.00 | 0.00 | 0.00 | 48 | 1010.7 |
| 20260507062358 | 34 | 28 | 0.0 | 1.0 | 0.00 | 0.00 | 0.00 | 50 | 1011.0 |
| 20260507061414 | 34 | 0 | 0.0 | 2.0 | 0.00 | 0.00 | 0.00 | 52 | 1011.0 |
| 20260507060357 | 34 | 40 | 0.0 | 1.0 | 0.00 | 0.00 | 0.00 | 50 | 1011.1 |
| 20260507055343 | 34 | 355 | 0.0 | 3.0 | 0.00 | 0.00 | 0.00 | 51 | 1011.1 |
| 20260507054358 | 33 | 19 | 0.0 | 2.0 | 0.00 | 0.00 | 0.00 | 52 | 1011.2 |
| 20260507052224 | 33 | 304 | 0.0 | 1.0 | 0.00 | 0.00 | 0.00 | 52 | 1011.3 |
| 20260507051230 | 32 | 304 | 0.0 | 2.0 | 0.00 | 0.00 | 0.00 | 53 | 1011.2 |
| 20260507045112 | 30 | 304 | 0.0 | 0.0 | 0.00 | 0.00 | 0.00 | 61 | 1011.4 |
| 20260507044126 | 30 | 304 | 0.0 | 0.0 | 0.00 | 0.00 | 0.00 | 62 | 1011.4 |
| 20260507043131 | 28 | 304 | 0.0 | 0.0 | 0.00 | 0.00 | 0.00 | 67 | 1011.6 |
| 20260507042129 | 29 | 304 | 0.0 | 0.0 | 0.00 | 0.00 | 0.00 | 64 | 1011.6 |
| 20260507041133 | 29 | 304 | 0.0 | 0.0 | 0.00 | 0.00 | 0.00 | 65 | 1011.6 |
| 20260507040132 | 30 | 304 | 0.0 | 0.0 | 0.00 | 0.00 | 0.00 | 64 | 1011.7 |
| 20260507034007 | 30 | 304 | 0.0 | 0.0 | 0.00 | 0.00 | 0.00 | 65 | 1012.0 |
| 20260507031844 | 31 | 304 | 0.0 | 0.0 | 0.00 | 0.00 | 0.00 | 61 | 1012.3 |
| 20260507030836 | 32 | 304 | 0.0 | 0.0 | 0.00 | 0.00 | 0.00 | 60 | 1012.4 |
| 20260507025821 | 33 | 304 | 0.0 | 0.0 | 0.00 | 0.00 | 0.00 | 58 | 1012.6 |
| 20260507024813 | 34 | 304 | 0.0 | 0.0 | 0.00 | 0.00 | 0.00 | 55 | 1012.4 |
| 20260507022627 | 38 | 304 | 0.0 | 0.0 | 0.00 | 0.00 | 0.00 | 43 | 1012.4 |
| 20260507021602 | 39 | 304 | 0.0 | 0.0 | 0.00 | 0.00 | 0.00 | 42 | 1012.4 |
| 20260507020605 | 40 | 304 | 0.0 | 2.0 | 0.00 | 0.00 | 0.00 | 38 | 1012.6 |
| 20260507015627 | 41 | 281 | 0.0 | 0.0 | 0.00 | 0.00 | 0.00 | 36 | 1012.5 |
| 20260507014645 | 41 | 295 | 0.0 | 0.0 | 0.00 | 0.00 | 0.00 | 36 | 1012.6 |
| 20260507013620 | 42 | 213 | 2.0 | 0.0 | 0.00 | 0.00 | 0.00 | 35 | 1012.5 |
| 20260507012637 | 42 | 238 | 0.0 | 7.0 | 0.00 | 0.00 | 0.00 | 35 | 1012.6 |
| 20260507011629 | 42 | 331 | 2.0 | 4.0 | 0.00 | 0.00 | 0.00 | 33 | 1012.6 |
| 20260507010634 | 42 | 5 | 0.0 | 3.0 | 0.00 | 0.00 | 0.00 | 34 | 1012.6 |
| 20260507005616 | 43 | 213 | 1.0 | 10.0 | 0.00 | 0.00 | 0.00 | 33 | 1012.5 |
| 20260507004627 | 43 | 210 | 2.0 | 0.0 | 0.00 | 0.00 | 0.00 | 35 | 1012.5 |
| 20260507003608 | 43 | 231 | 4.0 | 15.0 | 0.00 | 0.00 | 0.00 | 32 | 1012.5 |
| 20260507002632 | 44 | 200 | 5.0 | 15.0 | 0.00 | 0.00 | 0.00 | 31 | 1012.6 |
| 20260507001619 | 44 | 261 | 2.0 | 7.0 | 0.00 | 0.00 | 0.00 | 31 | 1012.8 |
| 20260506235412 | 44 | 231 | 4.0 | 11.0 | 0.00 | 0.00 | 0.00 | 32 | 1012.8 |
| 20260506234344 | 44 | 219 | 1.0 | 11.0 | 0.00 | 0.00 | 0.00 | 34 | 1013.2 |
| 20260506233357 | 45 | 229 | 5.0 | 18.0 | 0.00 | 0.00 | 0.00 | 30 | 1013.2 |
| 20260506232358 | 45 | 329 | 4.0 | 18.0 | 0.00 | 0.00 | 0.00 | 30 | 1013.2 |
| 20260506231414 | 45 | 300 | 3.0 | 15.0 | 0.00 | 0.00 | 0.00 | 31 | 1013.3 |
| 20260506230430 | 45 | 270 | 4.0 | 13.0 | 0.00 | 0.00 | 0.00 | 29 | 1013.4 |
| 20260506225431 | 45 | 333 | 4.0 | 13.0 | 0.00 | 0.00 | 0.00 | 30 | 1013.5 |
| 20260506224442 | 45 | 214 | 3.0 | 12.0 | 0.00 | 0.00 | 0.00 | 31 | 1013.3 |
| 20260506223454 | 46 | 17 | 4.0 | 16.0 | 0.00 | 0.00 | 0.00 | 33 | 1013.5 |
| 20260506222425 | 45 | 242 | 6.0 | 16.0 | 0.00 | 0.00 | 0.00 | 33 | 1013.5 |
| 20260506220336 | 44 | 255 | 6.0 | 17.0 | 0.00 | 0.00 | 0.00 | 32 | 1013.9 |
| 20260506215318 | 47 | 286 | 1.0 | 8.0 | 0.00 | 0.00 | 0.00 | 39 | 1014.0 |
| 20260506214320 | 44 | 271 | 4.0 | 14.0 | 0.00 | 0.00 | 0.00 | 37 | 1014.0 |
| 20260506213319 | 44 | 284 | 2.0 | 17.0 | 0.00 | 0.00 | 0.00 | 38 | 1014.2 |
| 20260506212247 | 45 | 297 | 5.0 | 17.0 | 0.00 | 0.00 | 0.00 | 34 | 1014.2 |
| 20260506211213 | 45 | 238 | 3.0 | 16.0 | 0.00 | 0.00 | 0.00 | 36 | 1014.3 |
| 20260506210221 | 45 | 12 | 3.0 | 17.0 | 0.00 | 0.00 | 0.00 | 34 | 1014.4 |
| 20260506205207 | 45 | 259 | 7.0 | 17.0 | 0.00 | 0.00 | 0.00 | 32 | 1014.4 |
| 20260506203044 | 43 | 323 | 5.0 | 20.0 | 0.00 | 0.00 | 0.00 | 34 | 1014.7 |
| 20260506202015 | 43 | 225 | 5.0 | 15.0 | 0.00 | 0.00 | 0.00 | 36 | 1014.8 |
| 20260506201025 | 43 | 5 | 3.0 | 19.0 | 0.00 | 0.00 | 0.00 | 36 | 1014.7 |
| 20260506200030 | 43 | 342 | 6.0 | 19.0 | 0.00 | 0.00 | 0.00 | 35 | 1014.8 |
| 20260506193900 | 42 | 310 | 2.0 | 17.0 | 0.00 | 0.00 | 0.00 | 36 | 1014.9 |
| 20260506192840 | 40 | 148 | 4.0 | 17.0 | 0.00 | 0.00 | 0.00 | 35 | 1014.9 |
| 20260506191808 | 42 | 198 | 4.0 | 14.0 | 0.00 | 0.00 | 0.00 | 38 | 1015.2 |
| 20260506190805 | 42 | 235 | 3.0 | 12.0 | 0.00 | 0.00 | 0.00 | 35 | 1015.2 |
| 20260506184640 | 40 | 145 | 5.0 | 15.0 | 0.00 | 0.00 | 0.00 | 39 | 1015.1 |
| 20260506183641 | 40 | 197 | 5.0 | 18.0 | 0.00 | 0.00 | 0.00 | 41 | 1015.3 |
| 20260506181509 | 40 | 198 | 4.0 | 11.0 | 0.00 | 0.00 | 0.00 | 44 | 1015.6 |
| 20260506180525 | 39 | 217 | 3.0 | 13.0 | 0.00 | 0.00 | 0.00 | 44 | 1015.5 |
| 20260506175542 | 39 | 253 | 3.0 | 13.0 | 0.00 | 0.00 | 0.00 | 46 | 1015.6 |
| 20260506174509 | 39 | 281 | 3.0 | 10.0 | 0.00 | 0.00 | 0.00 | 45 | 1015.7 |
| 20260506173458 | 38 | 319 | 4.0 | 15.0 | 0.00 | 0.00 | 0.00 | 45 | 1015.8 |
| 20260506172425 | 38 | 236 | 4.0 | 15.0 | 0.00 | 0.00 | 0.00 | 49 | 1015.9 |
| 20260506171356 | 37 | 276 | 4.0 | 16.0 | 0.00 | 0.00 | 0.00 | 55 | 1015.9 |
| 20260506170323 | 36 | 336 | 7.0 | 16.0 | 0.00 | 0.00 | 0.00 | 48 | 1015.9 |
| 20260506165305 | 35 | 219 | 2.0 | 12.0 | 0.00 | 0.00 | 0.00 | 51 | 1016.0 |
| 20260506164306 | 35 | 33 | 5.0 | 12.0 | 0.00 | 0.00 | 0.00 | 50 | 1016.0 |
| 20260506163248 | 35 | 281 | 3.0 | 12.0 | 0.00 | 0.00 | 0.00 | 54 | 1016.0 |
| 20260506161055 | 34 | 229 | 3.0 | 11.0 | 0.00 | 0.00 | 0.00 | 53 | 1016.1 |
| 20260506160020 | 32 | 98 | 4.0 | 14.0 | 0.00 | 0.00 | 0.00 | 53 | 1016.0 |
| 20260506155001 | 32 | 205 | 5.0 | 17.0 | 0.00 | 0.00 | 0.00 | 55 | 1016.1 |
| 20260506152820 | 32 | 67 | 2.0 | 15.0 | 0.00 | 0.00 | 0.00 | 57 | 1016.1 |
| 20260506151815 | 32 | 355 | 5.0 | 15.0 | 0.00 | 0.00 | 0.00 | 56 | 1016.2 |
| 20260506150826 | 31 | 14 | 2.0 | 10.0 | 0.00 | 0.00 | 0.00 | 57 | 1016.0 |
| 20260506145800 | 31 | 341 | 4.0 | 13.0 | 0.00 | 0.00 | 0.00 | 57 | 1016.2 |
| 20260506144738 | 30 | 291 | 2.0 | 14.0 | 0.00 | 0.00 | 0.00 | 59 | 1016.2 |